sensor_id;sensor_type;location;lat;lon;timestamp;pressure;altitude;pressure_sealevel;temperature;humidity
42705;BME280;28342;42.594;23.414;2023-02-21T00:01:50;94855.41;;;3.06;71.88
42705;BME280;28342;42.594;23.414;2023-02-21T00:04:34;94849.09;;;3.02;71.83
42705;BME280;28342;42.594;23.414;2023-02-21T00:07:18;94863.72;;;2.92;72.79
42705;BME280;28342;42.594;23.414;2023-02-21T00:10:04;94856.16;;;3.01;72.32
42705;BME280;28342;42.594;23.414;2023-02-21T00:12:48;94838.50;;;2.86;72.19
42705;BME280;28342;42.594;23.414;2023-02-21T00:15:32;94846.72;;;3.00;72.30
42705;BME280;28342;42.594;23.414;2023-02-21T00:18:16;94859.19;;;2.88;72.71
42705;BME280;28342;42.594;23.414;2023-02-21T00:21:00;94851.97;;;3.00;72.32
42705;BME280;28342;42.594;23.414;2023-02-21T00:23:44;94842.97;;;2.91;72.22
42705;BME280;28342;42.594;23.414;2023-02-21T00:26:28;94846.06;;;2.83;72.40
42705;BME280;28342;42.594;23.414;2023-02-21T00:29:12;94843.47;;;2.88;72.12
42705;BME280;28342;42.594;23.414;2023-02-21T00:31:57;94847.66;;;2.57;74.02
42705;BME280;28342;42.594;23.414;2023-02-21T00:34:41;94847.25;;;2.70;73.25
42705;BME280;28342;42.594;23.414;2023-02-21T00:37:25;94833.22;;;2.81;73.38
42705;BME280;28342;42.594;23.414;2023-02-21T00:40:11;94838.19;;;2.78;73.13
42705;BME280;28342;42.594;23.414;2023-02-21T00:42:55;94820.66;;;2.83;73.14
42705;BME280;28342;42.594;23.414;2023-02-21T00:45:40;94823.41;;;2.66;73.52
42705;BME280;28342;42.594;23.414;2023-02-21T00:48:24;94806.16;;;2.70;73.28
42705;BME280;28342;42.594;23.414;2023-02-21T00:51:08;94834.09;;;2.92;72.95
42705;BME280;28342;42.594;23.414;2023-02-21T00:53:52;94825.53;;;2.69;73.79
42705;BME280;28342;42.594;23.414;2023-02-21T00:56:38;94813.88;;;2.55;75.09
42705;BME280;28342;42.594;23.414;2023-02-21T00:59:23;94808.31;;;2.79;73.59
42705;BME280;28342;42.594;23.414;2023-02-21T01:02:08;94807.34;;;2.58;75.05
42705;BME280;28342;42.594;23.414;2023-02-21T01:04:53;94814.47;;;2.62;74.43
42705;BME280;28342;42.594;23.414;2023-02-21T01:07:37;94804.84;;;2.73;74.11
42705;BME280;28342;42.594;23.414;2023-02-21T01:10:21;94784.78;;;2.52;74.85
42705;BME280;28342;42.594;23.414;2023-02-21T01:13:05;94796.03;;;2.47;75.03
42705;BME280;28342;42.594;23.414;2023-02-21T01:15:50;94782.38;;;2.45;75.27
42705;BME280;28342;42.594;23.414;2023-02-21T01:18:34;94789.25;;;2.51;75.48
42705;BME280;28342;42.594;23.414;2023-02-21T01:21:19;94782.75;;;2.59;75.06
42705;BME280;28342;42.594;23.414;2023-02-21T01:24:04;94775.66;;;2.59;75.24
42705;BME280;28342;42.594;23.414;2023-02-21T01:26:49;94750.97;;;2.45;75.45
42705;BME280;28342;42.594;23.414;2023-02-21T01:29:33;94747.09;;;2.53;75.19
42705;BME280;28342;42.594;23.414;2023-02-21T01:32:17;94783.53;;;2.59;75.42
42705;BME280;28342;42.594;23.414;2023-02-21T01:35:01;94767.81;;;2.59;75.17
42705;BME280;28342;42.594;23.414;2023-02-21T01:37:45;94774.66;;;2.60;75.53
42705;BME280;28342;42.594;23.414;2023-02-21T01:40:29;94778.88;;;2.66;74.65
42705;BME280;28342;42.594;23.414;2023-02-21T01:43:15;94770.50;;;2.64;74.86
42705;BME280;28342;42.594;23.414;2023-02-21T01:45:59;94735.81;;;2.52;75.21
42705;BME280;28342;42.594;23.414;2023-02-21T01:48:43;94768.97;;;2.74;74.24
42705;BME280;28342;42.594;23.414;2023-02-21T01:51:39;94734.78;;;2.53;75.44
42705;BME280;28342;42.594;23.414;2023-02-21T01:54:29;94755.75;;;2.58;75.69
42705;BME280;28342;42.594;23.414;2023-02-21T01:57:14;94733.31;;;2.30;76.66
42705;BME280;28342;42.594;23.414;2023-02-21T02:00:00;94739.75;;;2.18;77.33
42705;BME280;28342;42.594;23.414;2023-02-21T02:02:59;94714.28;;;2.13;77.53
42705;BME280;28342;42.594;23.414;2023-02-21T02:05:50;94730.09;;;2.23;77.63
42705;BME280;28342;42.594;23.414;2023-02-21T02:08:36;94739.81;;;2.28;77.72
42705;BME280;28342;42.594;23.414;2023-02-21T02:17:06;94711.06;;;2.33;76.58
42705;BME280;28342;42.594;23.414;2023-02-21T02:22:30;94721.78;;;2.63;75.78
42705;BME280;28342;42.594;23.414;2023-02-21T02:25:40;94710.78;;;2.66;75.97
42705;BME280;28342;42.594;23.414;2023-02-21T02:31:12;94714.97;;;2.62;76.09
42705;BME280;28342;42.594;23.414;2023-02-21T02:36:49;94726.97;;;2.58;76.02
42705;BME280;28342;42.594;23.414;2023-02-21T02:39:27;94711.56;;;2.67;75.77
42705;BME280;28342;42.594;23.414;2023-02-21T02:42:22;94665.47;;;2.29;76.60
42705;BME280;28342;42.594;23.414;2023-02-21T02:45:05;94705.91;;;2.43;76.92
42705;BME280;28342;42.594;23.414;2023-02-21T02:47:35;94670.25;;;2.37;76.58
42705;BME280;28342;42.594;23.414;2023-02-21T02:50:03;94680.31;;;2.50;76.35
42705;BME280;28342;42.594;23.414;2023-02-21T02:52:29;94685.56;;;2.55;76.78
42705;BME280;28342;42.594;23.414;2023-02-21T02:55:18;94701.88;;;2.62;76.42
42705;BME280;28342;42.594;23.414;2023-02-21T02:57:45;94711.56;;;2.67;76.45
42705;BME280;28342;42.594;23.414;2023-02-21T03:00:13;94701.22;;;2.45;76.94
42705;BME280;28342;42.594;23.414;2023-02-21T03:02:51;94695.44;;;2.43;76.49
42705;BME280;28342;42.594;23.414;2023-02-21T03:05:35;94702.28;;;2.49;76.63
42705;BME280;28342;42.594;23.414;2023-02-21T03:18:47;94723.78;;;2.51;77.74
42705;BME280;28342;42.594;23.414;2023-02-21T03:21:20;94712.50;;;2.51;76.50
42705;BME280;28342;42.594;23.414;2023-02-21T03:23:49;94699.69;;;2.49;76.76
42705;BME280;28342;42.594;23.414;2023-02-21T03:26:16;94721.81;;;2.68;75.91
42705;BME280;28342;42.594;23.414;2023-02-21T03:28:43;94697.09;;;2.54;76.08
42705;BME280;28342;42.594;23.414;2023-02-21T03:31:09;94691.28;;;2.47;76.79
42705;BME280;28342;42.594;23.414;2023-02-21T03:33:37;94706.59;;;2.65;75.94
42705;BME280;28342;42.594;23.414;2023-02-21T03:36:05;94714.50;;;2.76;75.97
42705;BME280;28342;42.594;23.414;2023-02-21T03:38:31;94695.88;;;2.72;75.74
42705;BME280;28342;42.594;23.414;2023-02-21T03:40:57;94701.44;;;2.81;75.14
42705;BME280;28342;42.594;23.414;2023-02-21T03:43:22;94691.69;;;2.71;75.44
42705;BME280;28342;42.594;23.414;2023-02-21T03:45:48;94693.25;;;2.30;77.64
42705;BME280;28342;42.594;23.414;2023-02-21T03:48:14;94709.56;;;2.42;77.39
42705;BME280;28342;42.594;23.414;2023-02-21T03:50:39;94694.69;;;2.48;77.14
42705;BME280;28342;42.594;23.414;2023-02-21T03:53:05;94704.31;;;2.42;76.49
42705;BME280;28342;42.594;23.414;2023-02-21T03:55:30;94695.50;;;2.53;76.13
42705;BME280;28342;42.594;23.414;2023-02-21T03:57:57;94694.22;;;2.19;77.43
42705;BME280;28342;42.594;23.414;2023-02-21T04:00:23;94706.44;;;2.13;77.87
42705;BME280;28342;42.594;23.414;2023-02-21T04:02:48;94710.75;;;2.29;77.21
42705;BME280;28342;42.594;23.414;2023-02-21T04:05:14;94711.91;;;2.44;76.73
42705;BME280;28342;42.594;23.414;2023-02-21T04:07:40;94714.50;;;2.38;76.76
42705;BME280;28342;42.594;23.414;2023-02-21T04:10:06;94725.09;;;2.54;76.28
42705;BME280;28342;42.594;23.414;2023-02-21T04:12:31;94692.50;;;2.34;75.79
42705;BME280;28342;42.594;23.414;2023-02-21T04:14:57;94731.88;;;2.50;76.13
42705;BME280;28342;42.594;23.414;2023-02-21T04:17:23;94703.66;;;2.25;76.09
42705;BME280;28342;42.594;23.414;2023-02-21T04:19:48;94718.78;;;2.50;75.69
42705;BME280;28342;42.594;23.414;2023-02-21T04:22:14;94737.56;;;2.42;75.92
42705;BME280;28342;42.594;23.414;2023-02-21T04:24:39;94698.31;;;2.09;77.24
42705;BME280;28342;42.594;23.414;2023-02-21T04:27:05;94733.84;;;2.32;75.96
42705;BME280;28342;42.594;23.414;2023-02-21T04:29:30;94731.88;;;2.18;77.08
42705;BME280;28342;42.594;23.414;2023-02-21T04:31:56;94734.00;;;2.21;76.84
42705;BME280;28342;42.594;23.414;2023-02-21T04:34:21;94747.72;;;2.33;76.62
42705;BME280;28342;42.594;23.414;2023-02-21T04:36:47;94743.69;;;2.20;77.38
42705;BME280;28342;42.594;23.414;2023-02-21T04:39:13;94753.63;;;2.18;76.90
42705;BME280;28342;42.594;23.414;2023-02-21T04:41:39;94762.53;;;2.22;76.00
42705;BME280;28342;42.594;23.414;2023-02-21T04:44:05;94735.84;;;1.93;77.54
42705;BME280;28342;42.594;23.414;2023-02-21T04:46:31;94752.56;;;1.92;78.07
42705;BME280;28342;42.594;23.414;2023-02-21T04:48:57;94748.72;;;2.00;77.32
42705;BME280;28342;42.594;23.414;2023-02-21T04:51:23;94717.72;;;1.87;77.22
42705;BME280;28342;42.594;23.414;2023-02-21T04:53:51;94733.63;;;2.07;76.92
42705;BME280;28342;42.594;23.414;2023-02-21T04:56:20;94727.09;;;2.09;76.60
42705;BME280;28342;42.594;23.414;2023-02-21T04:58:46;94737.06;;;2.13;76.77
42705;BME280;28342;42.594;23.414;2023-02-21T05:01:12;94689.69;;;1.82;76.79
42705;BME280;28342;42.594;23.414;2023-02-21T05:03:39;94740.72;;;2.12;76.88
42705;BME280;28342;42.594;23.414;2023-02-21T05:06:05;94733.31;;;2.03;77.04
42705;BME280;28342;42.594;23.414;2023-02-21T05:08:31;94721.06;;;2.09;76.97
42705;BME280;28342;42.594;23.414;2023-02-21T05:10:57;94711.00;;;1.96;77.99
42705;BME280;28342;42.594;23.414;2023-02-21T05:13:22;94705.09;;;2.05;77.96
42705;BME280;28342;42.594;23.414;2023-02-21T05:15:48;94709.28;;;2.06;77.81
42705;BME280;28342;42.594;23.414;2023-02-21T05:18:14;94709.31;;;2.12;76.85
42705;BME280;28342;42.594;23.414;2023-02-21T05:20:50;94688.38;;;2.12;77.16
42705;BME280;28342;42.594;23.414;2023-02-21T05:23:17;94704.69;;;2.19;77.25
42705;BME280;28342;42.594;23.414;2023-02-21T05:25:43;94684.34;;;1.99;77.56
42705;BME280;28342;42.594;23.414;2023-02-21T05:28:09;94696.22;;;2.12;77.63
42705;BME280;28342;42.594;23.414;2023-02-21T05:30:35;94686.09;;;1.88;77.78
42705;BME280;28342;42.594;23.414;2023-02-21T05:33:01;94702.34;;;1.90;77.83
42705;BME280;28342;42.594;23.414;2023-02-21T05:35:26;94686.63;;;1.90;77.02
42705;BME280;28342;42.594;23.414;2023-02-21T05:37:52;94696.34;;;1.95;77.04
42705;BME280;28342;42.594;23.414;2023-02-21T05:40:17;94680.22;;;1.76;78.04
42705;BME280;28342;42.594;23.414;2023-02-21T05:42:43;94721.56;;;2.06;77.83
42705;BME280;28342;42.594;23.414;2023-02-21T05:45:09;94708.75;;;2.04;77.89
42705;BME280;28342;42.594;23.414;2023-02-21T05:47:35;94710.56;;;2.04;78.12
42705;BME280;28342;42.594;23.414;2023-02-21T05:50:02;94711.50;;;2.20;77.59
42705;BME280;28342;42.594;23.414;2023-02-21T05:52:27;94713.59;;;2.23;76.85
42705;BME280;28342;42.594;23.414;2023-02-21T05:54:53;94685.66;;;1.69;79.56
42705;BME280;28342;42.594;23.414;2023-02-21T05:57:21;94685.34;;;1.66;79.74
42705;BME280;28342;42.594;23.414;2023-02-21T05:59:49;94696.41;;;1.73;79.60
42705;BME280;28342;42.594;23.414;2023-02-21T06:02:15;94705.97;;;1.89;79.28
42705;BME280;28342;42.594;23.414;2023-02-21T06:04:41;94736.47;;;2.05;79.38
42705;BME280;28342;42.594;23.414;2023-02-21T06:07:07;94722.91;;;2.08;78.37
42705;BME280;28342;42.594;23.414;2023-02-21T06:09:32;94713.75;;;2.11;79.09
42705;BME280;28342;42.594;23.414;2023-02-21T06:11:58;94734.38;;;2.02;79.49
42705;BME280;28342;42.594;23.414;2023-02-21T06:14:24;94710.56;;;2.04;79.97
42705;BME280;28342;42.594;23.414;2023-02-21T06:16:50;94710.88;;;2.13;78.80
42705;BME280;28342;42.594;23.414;2023-02-21T06:19:16;94734.09;;;2.31;78.49
42705;BME280;28342;42.594;23.414;2023-02-21T06:21:43;94728.50;;;2.54;77.96
42705;BME280;28342;42.594;23.414;2023-02-21T06:24:11;94691.28;;;2.47;77.57
42705;BME280;28342;42.594;23.414;2023-02-21T06:26:37;94736.97;;;2.66;77.51
42705;BME280;28342;42.594;23.414;2023-02-21T06:29:10;94723.97;;;2.77;76.73
42705;BME280;28342;42.594;23.414;2023-02-21T06:31:36;94733.50;;;2.93;76.77
42705;BME280;28342;42.594;23.414;2023-02-21T06:34:02;94742.47;;;3.07;76.10
42705;BME280;28342;42.594;23.414;2023-02-21T06:36:28;94741.97;;;3.10;75.67
42705;BME280;28342;42.594;23.414;2023-02-21T06:38:55;94749.66;;;2.85;76.81
42705;BME280;28342;42.594;23.414;2023-02-21T06:41:23;94766.09;;;3.12;75.93
42705;BME280;28342;42.594;23.414;2023-02-21T06:43:53;94760.41;;;3.30;75.58
42705;BME280;28342;42.594;23.414;2023-02-21T06:46:21;94764.16;;;3.50;75.64
42705;BME280;28342;42.594;23.414;2023-02-21T06:48:47;94774.44;;;3.62;75.69
42705;BME280;28342;42.594;23.414;2023-02-21T06:51:13;94754.56;;;3.76;74.58
42705;BME280;28342;42.594;23.414;2023-02-21T06:53:40;94740.19;;;3.94;73.61
42705;BME280;28342;42.594;23.414;2023-02-21T06:56:07;94754.16;;;4.19;73.69
42705;BME280;28342;42.594;23.414;2023-02-21T06:58:33;94746.53;;;4.23;73.96
42705;BME280;28342;42.594;23.414;2023-02-21T07:00:59;94760.47;;;4.44;73.01
42705;BME280;28342;42.594;23.414;2023-02-21T07:03:25;94726.06;;;4.30;72.82
42705;BME280;28342;42.594;23.414;2023-02-21T07:05:50;94721.88;;;4.29;72.98
42705;BME280;28342;42.594;23.414;2023-02-21T07:08:16;94721.88;;;4.49;71.97
42705;BME280;28342;42.594;23.414;2023-02-21T07:10:43;94717.66;;;4.48;71.53
42705;BME280;28342;42.594;23.414;2023-02-21T07:13:08;94753.38;;;4.80;70.12
42705;BME280;28342;42.594;23.414;2023-02-21T07:15:33;94727.09;;;4.90;70.40
42705;BME280;28342;42.594;23.414;2023-02-21T07:17:59;94720.78;;;4.96;70.33
42705;BME280;28342;42.594;23.414;2023-02-21T07:20:24;94730.72;;;5.04;69.03
42705;BME280;28342;42.594;23.414;2023-02-21T07:22:51;94753.84;;;5.28;68.10
42705;BME280;28342;42.594;23.414;2023-02-21T07:25:19;94746.97;;;5.37;67.47
42705;BME280;28342;42.594;23.414;2023-02-21T07:27:48;94745.31;;;5.56;67.24
42705;BME280;28342;42.594;23.414;2023-02-21T07:30:15;94744.47;;;5.71;67.95
42705;BME280;28342;42.594;23.414;2023-02-21T07:32:40;94744.41;;;5.86;67.18
42705;BME280;28342;42.594;23.414;2023-02-21T07:35:06;94736.22;;;5.98;66.71
42705;BME280;28342;42.594;23.414;2023-02-21T07:37:32;94722.91;;;6.18;65.57
42705;BME280;28342;42.594;23.414;2023-02-21T07:39:57;94728.53;;;6.41;65.37
42705;BME280;28342;42.594;23.414;2023-02-21T07:42:23;94732.56;;;6.67;64.01
42705;BME280;28342;42.594;23.414;2023-02-21T07:44:53;94702.44;;;6.78;64.32
42705;BME280;28342;42.594;23.414;2023-02-21T07:47:19;94687.53;;;6.93;61.95
42705;BME280;28342;42.594;23.414;2023-02-21T07:49:44;94717.09;;;7.13;60.62
42705;BME280;28342;42.594;23.414;2023-02-21T07:52:10;94741.41;;;7.34;61.60
42705;BME280;28342;42.594;23.414;2023-02-21T07:54:35;94718.41;;;7.40;61.55
42705;BME280;28342;42.594;23.414;2023-02-21T07:57:01;94733.22;;;7.60;61.82
42705;BME280;28342;42.594;23.414;2023-02-21T07:59:26;94704.75;;;7.57;61.52
42705;BME280;28342;42.594;23.414;2023-02-21T08:01:51;94715.56;;;7.79;61.27
42705;BME280;28342;42.594;23.414;2023-02-21T08:04:17;94725.50;;;7.87;59.96
42705;BME280;28342;42.594;23.414;2023-02-21T08:06:46;94711.03;;;8.03;59.45
42705;BME280;28342;42.594;23.414;2023-02-21T08:09:13;94702.44;;;8.12;58.58
42705;BME280;28342;42.594;23.414;2023-02-21T08:11:38;94707.00;;;8.25;58.88
42705;BME280;28342;42.594;23.414;2023-02-21T08:14:05;94723.09;;;8.47;59.17
42705;BME280;28342;42.594;23.414;2023-02-21T08:16:30;94725.81;;;8.61;59.02
42705;BME280;28342;42.594;23.414;2023-02-21T08:18:56;94721.34;;;8.75;57.71
42705;BME280;28342;42.594;23.414;2023-02-21T08:21:21;94719.59;;;8.84;58.16
42705;BME280;28342;42.594;23.414;2023-02-21T08:23:47;94701.16;;;8.79;58.73
42705;BME280;28342;42.594;23.414;2023-02-21T08:26:12;94715.91;;;8.99;58.31
42705;BME280;28342;42.594;23.414;2023-02-21T08:28:38;94711.41;;;9.13;58.38
42705;BME280;28342;42.594;23.414;2023-02-21T08:31:04;94696.81;;;9.16;58.42
42705;BME280;28342;42.594;23.414;2023-02-21T08:33:29;94715.97;;;9.54;57.17
42705;BME280;28342;42.594;23.414;2023-02-21T08:35:54;94703.69;;;9.72;56.37
42705;BME280;28342;42.594;23.414;2023-02-21T08:38:20;94710.41;;;9.92;55.03
42705;BME280;28342;42.594;23.414;2023-02-21T08:40:46;94714.22;;;10.13;55.52
42705;BME280;28342;42.594;23.414;2023-02-21T08:43:11;94696.63;;;10.17;52.77
42705;BME280;28342;42.594;23.414;2023-02-21T08:45:36;94682.19;;;10.23;53.84
42705;BME280;28342;42.594;23.414;2023-02-21T08:48:02;94688.00;;;10.47;53.03
42705;BME280;28342;42.594;23.414;2023-02-21T08:50:28;94683.53;;;10.57;52.57
42705;BME280;28342;42.594;23.414;2023-02-21T08:52:53;94693.19;;;10.75;53.39
42705;BME280;28342;42.594;23.414;2023-02-21T08:55:19;94697.34;;;10.90;51.77
42705;BME280;28342;42.594;23.414;2023-02-21T08:57:50;94696.28;;;10.99;51.20
42705;BME280;28342;42.594;23.414;2023-02-21T09:00:17;94697.84;;;11.00;50.76
42705;BME280;28342;42.594;23.414;2023-02-21T09:02:43;94710.00;;;11.24;51.55
42705;BME280;28342;42.594;23.414;2023-02-21T09:05:18;94701.16;;;11.37;50.53
42705;BME280;28342;42.594;23.414;2023-02-21T09:07:47;94689.13;;;11.40;49.80
42705;BME280;28342;42.594;23.414;2023-02-21T09:10:13;94694.03;;;11.55;48.64
42705;BME280;28342;42.594;23.414;2023-02-21T09:12:38;94690.00;;;11.75;49.45
42705;BME280;28342;42.594;23.414;2023-02-21T09:15:05;94683.19;;;11.91;48.05
42705;BME280;28342;42.594;23.414;2023-02-21T09:17:31;94695.25;;;12.06;49.04
42705;BME280;28342;42.594;23.414;2023-02-21T09:20:07;94679.31;;;11.97;46.81
42705;BME280;28342;42.594;23.414;2023-02-21T09:22:33;94695.28;;;12.14;47.43
42705;BME280;28342;42.594;23.414;2023-02-21T09:25:00;94683.84;;;12.22;46.70
42705;BME280;28342;42.594;23.414;2023-02-21T09:27:25;94682.94;;;12.44;47.55
42705;BME280;28342;42.594;23.414;2023-02-21T09:32:34;94679.16;;;12.71;45.81
42705;BME280;28342;42.594;23.414;2023-02-21T09:35:01;94676.16;;;12.81;45.14
42705;BME280;28342;42.594;23.414;2023-02-21T09:37:26;94683.47;;;13.02;45.40
42705;BME280;28342;42.594;23.414;2023-02-21T09:39:52;94674.03;;;13.13;45.39
42705;BME280;28342;42.594;23.414;2023-02-21T09:42:18;94658.97;;;13.17;43.77
42705;BME280;28342;42.594;23.414;2023-02-21T09:44:46;94666.25;;;13.46;44.31
42705;BME280;28342;42.594;23.414;2023-02-21T09:47:20;94671.66;;;13.67;43.13
42705;BME280;28342;42.594;23.414;2023-02-21T09:49:51;94645.13;;;13.70;42.83
42705;BME280;28342;42.594;23.414;2023-02-21T09:52:26;94644.88;;;13.84;41.56
42705;BME280;28342;42.594;23.414;2023-02-21T09:54:57;94669.75;;;14.18;41.59
42705;BME280;28342;42.594;23.414;2023-02-21T09:57:24;94663.00;;;14.20;41.70
42705;BME280;28342;42.594;23.414;2023-02-21T09:59:49;94671.06;;;14.32;41.07
42705;BME280;28342;42.594;23.414;2023-02-21T10:04:54;94654.41;;;14.56;41.15
42705;BME280;28342;42.594;23.414;2023-02-21T10:07:26;94642.00;;;14.73;40.08
42705;BME280;28342;42.594;23.414;2023-02-21T10:10:01;94639.56;;;14.80;40.03
42705;BME280;28342;42.594;23.414;2023-02-21T10:12:40;94635.41;;;15.03;40.85
42705;BME280;28342;42.594;23.414;2023-02-21T10:15:36;94630.97;;;15.07;38.64
42705;BME280;28342;42.594;23.414;2023-02-21T10:18:27;94612.81;;;15.13;37.23
42705;BME280;28342;42.594;23.414;2023-02-21T10:21:01;94620.75;;;15.21;37.59
42705;BME280;28342;42.594;23.414;2023-02-21T10:23:47;94611.16;;;15.20;37.94
42705;BME280;28342;42.594;23.414;2023-02-21T10:26:25;94610.94;;;15.25;39.61
42705;BME280;28342;42.594;23.414;2023-02-21T10:28:52;94620.63;;;15.30;36.76
42705;BME280;28342;42.594;23.414;2023-02-21T10:31:38;94620.63;;;15.42;36.52
42705;BME280;28342;42.594;23.414;2023-02-21T10:34:23;94614.97;;;15.32;35.46
42705;BME280;28342;42.594;23.414;2023-02-21T10:36:52;94607.38;;;15.34;35.37
42705;BME280;28342;42.594;23.414;2023-02-21T10:39:34;94588.22;;;15.19;35.80
42705;BME280;28342;42.594;23.414;2023-02-21T10:42:01;94593.56;;;15.19;36.66
42705;BME280;28342;42.594;23.414;2023-02-21T10:44:29;94566.06;;;15.07;33.91
42705;BME280;28342;42.594;23.414;2023-02-21T10:47:01;94565.03;;;14.99;35.57
42705;BME280;28342;42.594;23.414;2023-02-21T10:49:47;94584.44;;;15.08;35.26
42705;BME280;28342;42.594;23.414;2023-02-21T10:52:16;94567.28;;;14.97;35.54
42705;BME280;28342;42.594;23.414;2023-02-21T10:55:00;94568.28;;;15.05;35.26
42705;BME280;28342;42.594;23.414;2023-02-21T10:57:27;94546.81;;;15.01;35.23
42705;BME280;28342;42.594;23.414;2023-02-21T10:59:53;94550.91;;;15.11;34.66
42705;BME280;28342;42.594;23.414;2023-02-21T11:02:39;94556.72;;;15.25;35.20
42705;BME280;28342;42.594;23.414;2023-02-21T11:07:35;94540.25;;;15.35;34.39
42705;BME280;28342;42.594;23.414;2023-02-21T11:10:01;94532.91;;;15.32;34.33
42705;BME280;28342;42.594;23.414;2023-02-21T11:12:28;94518.06;;;15.35;33.51
42705;BME280;28342;42.594;23.414;2023-02-21T11:17:25;94530.06;;;15.53;33.14
42705;BME280;28342;42.594;23.414;2023-02-21T11:20:14;94513.16;;;15.49;32.25
42705;BME280;28342;42.594;23.414;2023-02-21T11:22:43;94518.69;;;15.56;33.18
42705;BME280;28342;42.594;23.414;2023-02-21T11:27:43;94516.03;;;15.68;33.18
42705;BME280;28342;42.594;23.414;2023-02-21T11:30:18;94503.09;;;15.70;34.67
42705;BME280;28342;42.594;23.414;2023-02-21T11:32:50;94493.63;;;15.73;32.29
42705;BME280;28342;42.594;23.414;2023-02-21T11:37:59;94500.78;;;15.97;30.41
42705;BME280;28342;42.594;23.414;2023-02-21T11:40:44;94506.78;;;16.22;30.83
42705;BME280;28342;42.594;23.414;2023-02-21T11:43:32;94510.38;;;16.26;31.05
42705;BME280;28342;42.594;23.414;2023-02-21T11:51:57;94476.19;;;16.51;29.23
42705;BME280;28342;42.594;23.414;2023-02-21T11:54:27;94461.50;;;16.44;29.17
42705;BME280;28342;42.594;23.414;2023-02-21T11:59:59;94468.16;;;16.66;29.30
42705;BME280;28342;42.594;23.414;2023-02-21T12:02:47;94462.16;;;16.69;30.76
42705;BME280;28342;42.594;23.414;2023-02-21T12:08:27;94447.88;;;16.81;30.13
42705;BME280;28342;42.594;23.414;2023-02-21T12:13:56;94439.09;;;17.00;29.04
42705;BME280;28342;42.594;23.414;2023-02-21T12:16:40;94424.50;;;16.97;29.06
42705;BME280;28342;42.594;23.414;2023-02-21T12:22:03;94438.19;;;17.27;29.96
42705;BME280;28342;42.594;23.414;2023-02-21T12:27:47;94419.94;;;17.33;29.58
42705;BME280;28342;42.594;23.414;2023-02-21T12:41:28;94403.44;;;17.31;29.57
42705;BME280;28342;42.594;23.414;2023-02-21T12:44:12;94407.66;;;17.32;29.02
42705;BME280;28342;42.594;23.414;2023-02-21T12:47:00;94401.78;;;17.26;29.11
42705;BME280;28342;42.594;23.414;2023-02-21T12:49:56;94410.84;;;17.38;29.67
42705;BME280;28342;42.594;23.414;2023-02-21T12:52:34;94406.72;;;17.24;28.95
42705;BME280;28342;42.594;23.414;2023-02-21T12:55:05;94407.44;;;17.41;30.38
42705;BME280;28342;42.594;23.414;2023-02-21T13:05:41;94387.59;;;17.45;29.47
42705;BME280;28342;42.594;23.414;2023-02-21T13:08:27;94394.25;;;17.51;30.30
42705;BME280;28342;42.594;23.414;2023-02-21T13:11:14;94389.50;;;17.45;29.51
42705;BME280;28342;42.594;23.414;2023-02-21T13:13:41;94396.53;;;17.49;29.82
42705;BME280;28342;42.594;23.414;2023-02-21T13:16:08;94378.72;;;17.41;28.91
42705;BME280;28342;42.594;23.414;2023-02-21T13:18:43;94370.69;;;17.41;29.31
42705;BME280;28342;42.594;23.414;2023-02-21T13:23:45;94377.53;;;17.39;29.22
42705;BME280;28342;42.594;23.414;2023-02-21T13:28:57;94359.59;;;17.23;28.59
42705;BME280;28342;42.594;23.414;2023-02-21T13:31:26;94374.91;;;17.42;29.04
42705;BME280;28342;42.594;23.414;2023-02-21T13:33:58;94364.06;;;17.35;28.64
42705;BME280;28342;42.594;23.414;2023-02-21T13:36:42;94364.06;;;17.35;29.23
42705;BME280;28342;42.594;23.414;2023-02-21T13:41:36;94345.56;;;17.30;28.63
42705;BME280;28342;42.594;23.414;2023-02-21T13:44:11;94339.50;;;17.33;28.88
42705;BME280;28342;42.594;23.414;2023-02-21T13:49:43;94353.47;;;17.42;29.64
42705;BME280;28342;42.594;23.414;2023-02-21T13:57:42;94341.34;;;17.48;29.07
42705;BME280;28342;42.594;23.414;2023-02-21T14:05:24;94341.34;;;17.48;30.35
42705;BME280;28342;42.594;23.414;2023-02-21T14:07:59;94346.72;;;17.48;28.92
42705;BME280;28342;42.594;23.414;2023-02-21T14:10:36;94315.59;;;17.24;29.28
42705;BME280;28342;42.594;23.414;2023-02-21T14:13:06;94335.00;;;17.37;28.35
42705;BME280;28342;42.594;23.414;2023-02-21T14:15:45;94330.75;;;17.36;28.67
42705;BME280;28342;42.594;23.414;2023-02-21T14:18:29;94340.84;;;17.43;27.91
42705;BME280;28342;42.594;23.414;2023-02-21T14:20:57;94344.94;;;17.37;28.38
42705;BME280;28342;42.594;23.414;2023-02-21T14:23:34;94336.53;;;17.38;29.13
42705;BME280;28342;42.594;23.414;2023-02-21T14:26:03;94331.88;;;17.35;28.66
42705;BME280;28342;42.594;23.414;2023-02-21T14:28:49;94339.50;;;17.33;28.34
42705;BME280;28342;42.594;23.414;2023-02-21T14:34:16;94326.09;;;17.33;28.96
42705;BME280;28342;42.594;23.414;2023-02-21T14:36:45;94319.53;;;17.30;29.27
42705;BME280;28342;42.594;23.414;2023-02-21T14:39:13;94322.00;;;17.39;29.26
42705;BME280;28342;42.594;23.414;2023-02-21T14:49:37;94311.00;;;17.25;30.33
42705;BME280;28342;42.594;23.414;2023-02-21T14:55:28;94329.75;;;17.25;29.67
42705;BME280;28342;42.594;23.414;2023-02-21T14:58:03;94333.44;;;17.17;29.35
42705;BME280;28342;42.594;23.414;2023-02-21T15:01:02;94333.28;;;17.10;29.93
42705;BME280;28342;42.594;23.414;2023-02-21T15:04:17;94326.66;;;17.03;29.78
42705;BME280;28342;42.594;23.414;2023-02-21T15:06:54;94311.13;;;16.93;30.30
42705;BME280;28342;42.594;23.414;2023-02-21T15:09:25;94318.50;;;16.81;29.82
42705;BME280;28342;42.594;23.414;2023-02-21T15:11:51;94318.31;;;16.70;29.63
42705;BME280;28342;42.594;23.414;2023-02-21T15:14:21;94336.13;;;16.82;31.21
42705;BME280;28342;42.594;23.414;2023-02-21T15:19:22;94331.34;;;16.71;31.51
42705;BME280;28342;42.594;23.414;2023-02-21T15:22:06;94310.88;;;16.48;32.32